Terminal Aerodrome Forecast
Issued by NWS Wakefield, VA

Home | Current Version | Previous Version | Text Only | Print | Product List | Glossary On
Versions: 1 2 3 4 5 6 7 8 9 10 11 12 13 14 15
000
FTUS41 KAKQ 011120
TAFORF
TAF
KORF 011120Z 0112/0212 VRB02KT P6SM OVC015
     FM011300 36003KT P6SM BKN025
     FM011500 05005KT P6SM BKN050
     FM012200 21003KT P6SM SKC=

USA.gov is the U.S. government's official web portal to all federal, state and local government web resources and services.